Time;durP1;ratioP1;P1;durP2;ratioP2;P2;SDS_P1;SDS_P2;PMS_P1;PMS_P2;Temp;Humidity;BMP_temperature;BMP_pressure;BME280_temperature;BME280_humidity;BME280_pressure;Samples;Min_cycle;Max_cycle;Signal;HPM_P1;HPM_P2
2021/10/20 00:01:08;;;;;;;31.30;16.98;;;;;;;;;;6248018;23;20040;-58
2021/10/20 00:03:34;;;;;;;23.63;14.23;;;;;;;;;;6248144;23;20011;-58
2021/10/20 00:05:59;;;;;;;23.83;14.30;;;;;;;;;;6248000;22;20007;-58
2021/10/20 00:08:25;;;;;;;21.92;13.48;;;;;;;;;;6248124;22;20007;-58
2021/10/20 00:10:51;;;;;;;23.67;13.75;;;;;;;;;;6248083;22;20000;-58
2021/10/20 00:13:17;;;;;;;23.92;14.35;;;;;;;;;;6247055;22;20360;-59
2021/10/20 00:15:43;;;;;;;27.83;14.65;;;;;;;;;;6247787;22;20008;-58
2021/10/20 00:18:08;;;;;;;22.65;14.43;;;;;;;;;;6247845;22;20087;-58
2021/10/20 00:20:34;;;;;;;27.92;15.38;;;;;;;;;;6247806;23;20454;-58
2021/10/20 00:22:59;;;;;;;24.50;14.40;;;;;;;;;;6247834;22;20012;-58
2021/10/20 00:25:25;;;;;;;22.85;13.85;;;;;;;;;;6247446;22;20484;-58
2021/10/20 00:27:50;;;;;;;22.92;13.15;;;;;;;;;;6247664;22;20004;-58
2021/10/20 00:30:22;;;;;;;22.00;13.02;;;;;;;;;;6247939;22;20042;-58
2021/10/20 00:32:47;;;;;;;19.02;12.75;;;;;;;;;;6247897;22;20004;-58
2021/10/20 00:35:13;;;;;;;22.55;12.05;;;;;;;;;;6247628;23;19993;-58
2021/10/20 00:37:39;;;;;;;21.42;12.68;;;;;;;;;;6247837;22;20030;-58
2021/10/20 00:40:05;;;;;;;21.13;12.10;;;;;;;;;;6247696;22;20020;-58
2021/10/20 00:42:31;;;;;;;18.70;12.27;;;;;;;;;;6247509;22;20088;-58
2021/10/20 00:44:58;;;;;;;21.15;12.68;;;;;;;;;;6247115;22;20365;-58
2021/10/20 00:47:24;;;;;;;22.48;13.57;;;;;;;;;;6247383;22;20099;-58
2021/10/20 00:49:50;;;;;;;21.27;12.80;;;;;;;;;;6247558;22;20444;-58
2021/10/20 00:52:16;;;;;;;22.25;12.98;;;;;;;;;;6247228;22;20031;-58
2021/10/20 00:54:42;;;;;;;23.98;13.05;;;;;;;;;;6247276;22;20000;-57
2021/10/20 00:57:08;;;;;;;21.20;12.93;;;;;;;;;;6247333;22;20069;-58
2021/10/20 00:59:33;;;;;;;18.98;11.57;;;;;;;;;;6247464;22;20306;-58
2021/10/20 01:01:59;;;;;;;22.63;12.35;;;;;;;;;;6247312;22;20008;-58
2021/10/20 01:04:25;;;;;;;22.20;12.20;;;;;;;;;;6247331;22;19997;-58
2021/10/20 01:06:51;;;;;;;18.83;11.02;;;;;;;;;;6247253;22;20445;-59
2021/10/20 01:09:17;;;;;;;19.42;11.30;;;;;;;;;;6247330;22;19992;-58
2021/10/20 01:11:44;;;;;;;18.63;11.38;;;;;;;;;;6247678;22;20010;-58
2021/10/20 01:14:09;;;;;;;19.23;10.88;;;;;;;;;;6245310;23;20349;-58
2021/10/20 01:16:35;;;;;;;16.45;10.80;;;;;;;;;;6247393;22;20008;-58
2021/10/20 01:19:01;;;;;;;18.33;11.00;;;;;;;;;;6247358;22;20000;-58
2021/10/20 01:21:27;;;;;;;19.55;11.25;;;;;;;;;;6247083;22;20004;-58
2021/10/20 01:23:52;;;;;;;19.83;10.68;;;;;;;;;;6247164;22;19996;-58
2021/10/20 01:26:18;;;;;;;16.60;10.35;;;;;;;;;;6247224;22;20012;-57
2021/10/20 01:28:44;;;;;;;16.40;9.95;;;;;;;;;;6245737;23;20045;-58
2021/10/20 01:31:10;;;;;;;17.17;10.05;;;;;;;;;;6245426;23;20109;-58
2021/10/20 01:33:36;;;;;;;17.70;10.25;;;;;;;;;;6245387;23;20429;-58
2021/10/20 01:36:01;;;;;;;12.75;8.80;;;;;;;;;;6247003;22;20062;-58
2021/10/20 01:38:27;;;;;;;15.70;9.38;;;;;;;;;;6246724;22;20386;-58
2021/10/20 01:40:52;;;;;;;17.88;10.07;;;;;;;;;;6247245;22;20094;-58
2021/10/20 01:43:18;;;;;;;17.20;9.45;;;;;;;;;;6246780;22;20004;-64
2021/10/20 01:45:43;;;;;;;14.82;8.82;;;;;;;;;;6246702;22;20004;-64
2021/10/20 01:48:09;;;;;;;14.57;8.52;;;;;;;;;;6247033;23;19992;-65
2021/10/20 01:50:34;;;;;;;14.57;8.88;;;;;;;;;;6247008;22;20012;-64
2021/10/20 01:53:00;;;;;;;14.57;8.68;;;;;;;;;;6246649;22;20002;-63
2021/10/20 01:55:25;;;;;;;13.98;8.52;;;;;;;;;;6246976;23;20318;-64
2021/10/20 01:57:51;;;;;;;11.88;8.05;;;;;;;;;;6245227;23;20479;-64
2021/10/20 02:00:16;;;;;;;13.68;8.18;;;;;;;;;;6246862;23;20031;-64
2021/10/20 02:02:42;;;;;;;13.15;8.18;;;;;;;;;;6246682;23;19996;-64
2021/10/20 02:05:12;;;;;;;12.88;8.20;;;;;;;;;;6246191;23;20061;-64
2021/10/20 02:07:38;;;;;;;14.05;8.43;;;;;;;;;;6246782;22;20000;-64
2021/10/20 02:10:05;;;;;;;13.10;8.32;;;;;;;;;;6246578;22;20004;-64
2021/10/20 02:12:30;;;;;;;12.40;8.60;;;;;;;;;;6246299;22;20504;-64
2021/10/20 02:14:56;;;;;;;12.48;8.48;;;;;;;;;;6246744;23;20035;-64
2021/10/20 02:17:21;;;;;;;15.10;8.68;;;;;;;;;;6246518;22;20061;-63
2021/10/20 02:19:47;;;;;;;13.18;7.65;;;;;;;;;;6246373;22;20085;-63
2021/10/20 02:22:12;;;;;;;9.77;7.40;;;;;;;;;;6246322;23;19996;-64
2021/10/20 02:24:38;;;;;;;10.15;7.07;;;;;;;;;;6246309;22;20019;-64
2021/10/20 02:27:03;;;;;;;12.57;7.20;;;;;;;;;;6246593;22;20371;-64
2021/10/20 02:29:31;;;;;;;13.45;7.47;;;;;;;;;;6246477;22;20091;-64
2021/10/20 02:31:56;;;;;;;11.02;6.97;;;;;;;;;;6246446;22;20082;-64
2021/10/20 02:34:22;;;;;;;10.07;6.80;;;;;;;;;;6245814;22;20032;-64
2021/10/20 02:36:47;;;;;;;13.38;6.53;;;;;;;;;;6246497;22;20433;-64
2021/10/20 02:39:13;;;;;;;10.38;7.28;;;;;;;;;;6246437;23;20004;-64
2021/10/20 02:41:39;;;;;;;10.98;6.85;;;;;;;;;;6246517;22;19996;-64
2021/10/20 02:44:05;;;;;;;9.07;6.63;;;;;;;;;;6245152;23;20008;-64
2021/10/20 02:46:31;;;;;;;8.05;6.28;;;;;;;;;;6246438;22;20023;-64
2021/10/20 02:48:57;;;;;;;10.00;6.50;;;;;;;;;;6246851;22;20007;-65
2021/10/20 02:51:23;;;;;;;11.15;7.00;;;;;;;;;;6246086;23;19992;-65
2021/10/20 02:53:48;;;;;;;9.63;6.40;;;;;;;;;;6246416;22;20004;-64
2021/10/20 02:56:15;;;;;;;9.48;6.32;;;;;;;;;;6246278;22;20000;-65
2021/10/20 02:58:41;;;;;;;11.43;6.90;;;;;;;;;;6246517;22;20383;-65
2021/10/20 03:01:06;;;;;;;9.73;6.30;;;;;;;;;;6246183;22;20030;-65
2021/10/20 03:03:32;;;;;;;10.20;6.35;;;;;;;;;;6246576;23;20015;-66
2021/10/20 03:05:57;;;;;;;9.25;6.32;;;;;;;;;;6246357;22;20098;-65
2021/10/20 03:08:23;;;;;;;10.02;6.65;;;;;;;;;;6246110;22;20004;-66
2021/10/20 03:10:48;;;;;;;8.38;5.80;;;;;;;;;;6246255;22;20448;-65
2021/10/20 03:13:13;;;;;;;10.68;5.88;;;;;;;;;;6245415;22;20091;-65
2021/10/20 03:15:39;;;;;;;9.63;6.22;;;;;;;;;;6246540;22;20012;-65
2021/10/20 03:18:04;;;;;;;8.85;5.95;;;;;;;;;;6245768;23;20054;-65
2021/10/20 03:20:30;;;;;;;8.35;6.05;;;;;;;;;;6246405;22;20057;-65
2021/10/20 03:22:56;;;;;;;6.90;5.57;;;;;;;;;;6246206;22;20008;-65
2021/10/20 03:25:21;;;;;;;7.47;5.35;;;;;;;;;;6246148;22;19996;-65
2021/10/20 03:27:47;;;;;;;8.32;5.43;;;;;;;;;;6246614;23;20079;-65
2021/10/20 03:30:14;;;;;;;8.27;5.30;;;;;;;;;;6245968;22;20075;-65
2021/10/20 03:32:40;;;;;;;7.00;5.00;;;;;;;;;;6245868;22;20004;-65
2021/10/20 03:35:06;;;;;;;5.88;5.10;;;;;;;;;;6246507;22;20103;-64
2021/10/20 03:37:32;;;;;;;8.00;5.45;;;;;;;;;;6246007;22;20001;-65
2021/10/20 03:39:57;;;;;;;6.53;5.60;;;;;;;;;;6246438;23;19988;-65
2021/10/20 03:42:23;;;;;;;5.82;4.97;;;;;;;;;;6218885;23;20012;-64
2021/10/20 03:44:51;;;;;;;7.00;5.63;;;;;;;;;;6245907;22;19996;-65
2021/10/20 03:47:17;;;;;;;7.07;4.78;;;;;;;;;;6246168;22;20008;-65
2021/10/20 03:49:42;;;;;;;5.55;4.93;;;;;;;;;;6245757;22;20042;-66
2021/10/20 03:52:08;;;;;;;7.40;5.30;;;;;;;;;;6246028;23;20412;-64
2021/10/20 03:54:33;;;;;;;5.53;4.75;;;;;;;;;;6246271;23;20321;-65
2021/10/20 03:56:59;;;;;;;6.65;4.70;;;;;;;;;;6245958;22;20042;-65
2021/10/20 03:59:24;;;;;;;6.25;5.03;;;;;;;;;;6245765;22;19996;-58
2021/10/20 04:01:49;;;;;;;7.20;5.10;;;;;;;;;;6245620;22;20086;-58
2021/10/20 04:04:15;;;;;;;6.55;4.72;;;;;;;;;;6245684;23;20020;-58
2021/10/20 04:06:41;;;;;;;5.53;4.47;;;;;;;;;;6245505;23;20371;-58
2021/10/20 04:09:06;;;;;;;7.50;4.57;;;;;;;;;;6245732;22;19996;-58
2021/10/20 04:11:32;;;;;;;4.63;4.20;;;;;;;;;;6245709;23;20054;-58
2021/10/20 04:13:57;;;;;;;5.65;4.78;;;;;;;;;;6245235;22;20077;-58
2021/10/20 04:16:23;;;;;;;4.93;4.53;;;;;;;;;;6245896;22;20012;-58
2021/10/20 04:18:48;;;;;;;5.03;4.18;;;;;;;;;;6244591;23;20070;-58
2021/10/20 04:21:14;;;;;;;5.88;4.30;;;;;;;;;;6245833;23;20087;-58
2021/10/20 04:23:40;;;;;;;5.47;4.53;;;;;;;;;;6245961;22;20005;-58
2021/10/20 04:26:05;;;;;;;5.22;4.40;;;;;;;;;;6245758;23;20511;-58
2021/10/20 04:28:31;;;;;;;7.47;4.32;;;;;;;;;;6247010;23;20420;-59
2021/10/20 04:30:56;;;;;;;6.07;4.35;;;;;;;;;;6247810;22;20006;-58
2021/10/20 04:33:22;;;;;;;4.25;3.85;;;;;;;;;;6247420;23;20416;-58
2021/10/20 04:35:47;;;;;;;5.13;4.65;;;;;;;;;;6247333;22;20063;-58
2021/10/20 04:38:13;;;;;;;4.90;4.28;;;;;;;;;;6247579;22;19997;-58
2021/10/20 04:44:14;;;;;;;4.65;3.88;;;;;;;;;;6247992;23;20010;-59
2021/10/20 04:50:16;;;;;;;6.20;4.22;;;;;;;;;;6248289;23;19998;-58
2021/10/20 04:56:17;;;;;;;3.60;3.33;;;;;;;;;;6247890;23;20420;-58
2021/10/20 05:02:17;;;;;;;4.18;3.70;;;;;;;;;;6247788;23;19999;-58
2021/10/20 05:08:17;;;;;;;3.72;3.42;;;;;;;;;;6247715;23;20019;-58
2021/10/20 05:18:05;;;;;;;4.13;3.72;;;;;;;;;;6247639;23;20435;-58
2021/10/20 05:24:06;;;;;;;4.13;3.45;;;;;;;;;;6247662;23;19999;-58
2021/10/20 05:30:08;;;;;;;5.68;3.60;;;;;;;;;;6247648;23;20050;-58
2021/10/20 05:36:08;;;;;;;4.93;3.92;;;;;;;;;;6247483;23;19999;-58
2021/10/20 05:42:09;;;;;;;5.07;4.05;;;;;;;;;;6247456;23;19996;-58
2021/10/20 05:48:10;;;;;;;5.45;3.70;;;;;;;;;;6247385;23;20072;-58
2021/10/20 05:54:10;;;;;;;5.60;3.55;;;;;;;;;;6247316;23;20002;-58
2021/10/20 06:00:11;;;;;;;3.88;3.33;;;;;;;;;;6247293;23;20112;-58
2021/10/20 06:06:14;;;;;;;3.78;3.42;;;;;;;;;;6246993;23;20443;-58
2021/10/20 06:08:39;;;;;;;4.03;3.72;;;;;;;;;;6245609;23;20004;-58
2021/10/20 06:11:05;;;;;;;3.97;3.50;;;;;;;;;;6246675;23;20342;-58
2021/10/20 06:13:30;;;;;;;6.93;3.67;;;;;;;;;;6246169;22;20004;-58
2021/10/20 06:15:56;;;;;;;3.42;3.22;;;;;;;;;;6246669;22;20004;-58
2021/10/20 06:18:21;;;;;;;4.68;3.85;;;;;;;;;;6246549;23;20004;-58
2021/10/20 06:20:47;;;;;;;5.03;3.45;;;;;;;;;;6246997;22;19996;-58
2021/10/20 06:40:39;;;;;;;3.88;3.55;;;;;;;;;;6246882;23;20316;-59
2021/10/20 06:46:40;;;;;;;4.10;3.70;;;;;;;;;;6246742;23;20063;-59
2021/10/20 06:52:41;;;;;;;5.15;3.55;;;;;;;;;;6246742;23;20000;-59
2021/10/20 06:58:42;;;;;;;4.38;3.97;;;;;;;;;;6246724;23;20086;-58
2021/10/20 07:04:42;;;;;;;5.95;4.28;;;;;;;;;;6246660;23;19999;-58
2021/10/20 07:10:43;;;;;;;3.55;3.22;;;;;;;;;;6246635;23;20035;-58
2021/10/20 07:20:20;;;;;;;3.63;3.33;;;;;;;;;;6246583;23;20015;-59
2021/10/20 07:29:55;;;;;;;4.30;3.88;;;;;;;;;;6246534;23;19999;-59
2021/10/20 07:35:56;;;;;;;2.95;2.25;;;;;;;;;;6246502;23;20003;-58
2021/10/20 07:41:56;;;;;;;3.97;2.72;;;;;;;;;;6246472;23;19999;-59
2021/10/20 07:47:57;;;;;;;4.55;3.33;;;;;;;;;;6246463;23;20100;-59
2021/10/20 07:53:57;;;;;;;2.90;2.65;;;;;;;;;;6246766;23;20050;-59
2021/10/20 07:59:58;;;;;;;6.28;3.33;;;;;;;;;;6246759;23;20011;-58
2021/10/20 08:05:59;;;;;;;3.45;2.92;;;;;;;;;;6248307;23;20083;-59
2021/10/20 08:12:00;;;;;;;3.25;2.97;;;;;;;;;;6248262;23;20454;-58
2021/10/20 08:21:49;;;;;;;3.78;3.45;;;;;;;;;;6248432;23;19998;-58
2021/10/20 08:27:50;;;;;;;4.85;3.17;;;;;;;;;;6248190;23;20130;-58
2021/10/20 08:33:51;;;;;;;3.10;2.88;;;;;;;;;;6248084;23;20434;-58
2021/10/20 08:39:52;;;;;;;4.45;3.15;;;;;;;;;;6248039;23;20083;-58
2021/10/20 08:45:52;;;;;;;4.13;3.17;;;;;;;;;;6247878;23;20047;-58
2021/10/20 08:51:53;;;;;;;3.35;3.05;;;;;;;;;;6247936;23;20031;-58
2021/10/20 08:57:54;;;;;;;2.78;2.40;;;;;;;;;;6247897;23;19999;-58
2021/10/20 09:07:40;;;;;;;3.55;2.92;;;;;;;;;;6247712;23;20071;-59
2021/10/20 09:13:41;;;;;;;3.88;2.22;;;;;;;;;;6247726;23;19998;-58
2021/10/20 09:23:07;;;;;;;4.45;3.05;;;;;;;;;;6247666;23;20014;-58
2021/10/20 09:36:20;;;;;;;4.78;3.10;;;;;;;;;;6247567;23;20031;-59
2021/10/20 09:42:21;;;;;;;4.60;2.90;;;;;;;;;;6247490;23;19999;-58
2021/10/20 09:48:23;;;;;;;2.90;2.70;;;;;;;;;;6247402;23;20448;-59
2021/10/20 09:54:24;;;;;;;5.32;3.33;;;;;;;;;;6247345;23;20321;-59
2021/10/20 09:56:56;;;;;;;3.42;2.83;;;;;;;;;;6246995;23;20083;-59
2021/10/20 09:59:22;;;;;;;2.83;2.63;;;;;;;;;;6246480;23;20421;-58
2021/10/20 10:01:48;;;;;;;3.03;2.83;;;;;;;;;;6246618;22;20000;-59
2021/10/20 10:04:14;;;;;;;4.70;2.22;;;;;;;;;;6247299;22;20318;-58
2021/10/20 10:06:40;;;;;;;4.32;2.38;;;;;;;;;;6244990;23;20058;-59
2021/10/20 10:12:42;;;;;;;3.97;2.90;;;;;;;;;;6247132;23;20426;-58
2021/10/20 10:22:49;;;;;;;2.75;1.98;;;;;;;;;;6247104;23;19998;-58
2021/10/20 10:29:08;;;;;;;2.88;2.40;;;;;;;;;;6246979;23;20015;-58
2021/10/20 10:35:11;;;;;;;2.45;2.25;;;;;;;;;;6246982;23;20123;-59
2021/10/20 10:41:18;;;;;;;4.35;2.47;;;;;;;;;;6246880;23;20079;-58
2021/10/20 10:47:26;;;;;;;2.65;2.42;;;;;;;;;;6246698;23;20019;-59
2021/10/20 10:49:56;;;;;;;2.75;2.30;;;;;;;;;;6246572;22;20011;-58
2021/10/20 10:52:27;;;;;;;2.53;2.33;;;;;;;;;;6246199;23;20000;-59
2021/10/20 10:54:53;;;;;;;2.78;2.38;;;;;;;;;;6244732;23;20524;-58
2021/10/20 10:57:18;;;;;;;2.97;2.78;;;;;;;;;;6246136;22;20025;-58
2021/10/20 10:59:54;;;;;;;2.22;2.13;;;;;;;;;;6246155;23;20008;-58
2021/10/20 11:02:39;;;;;;;3.33;2.10;;;;;;;;;;6246068;22;20004;-58
2021/10/20 11:05:05;;;;;;;3.58;2.35;;;;;;;;;;6245545;22;20057;-58
2021/10/20 11:07:31;;;;;;;2.65;2.40;;;;;;;;;;6245846;22;20004;-58
2021/10/20 11:09:57;;;;;;;3.10;2.80;;;;;;;;;;6245759;23;20004;-58
2021/10/20 11:15:58;;;;;;;1.40;1.05;;;;;;;;;;6246644;23;20003;-58
2021/10/20 11:25:37;;;;;;;2.67;2.47;;;;;;;;;;6246477;23;20007;-58
2021/10/20 11:28:04;;;;;;;3.20;2.47;;;;;;;;;;6245734;22;20428;-58
2021/10/20 11:30:31;;;;;;;3.60;2.42;;;;;;;;;;6244398;23;19992;-58
2021/10/20 11:32:57;;;;;;;2.53;1.88;;;;;;;;;;6245918;23;20018;-58
2021/10/20 11:35:24;;;;;;;2.33;2.22;;;;;;;;;;6246070;22;20071;-58
2021/10/20 11:38:00;;;;;;;2.55;1.83;;;;;;;;;;6246718;22;20004;-58
2021/10/20 11:40:28;;;;;;;2.72;2.53;;;;;;;;;;6248179;23;20011;-58
2021/10/20 11:50:04;;;;;;;2.70;2.55;;;;;;;;;;6248491;23;20067;-58
2021/10/20 11:56:10;;;;;;;3.40;2.47;;;;;;;;;;6248489;23;20038;-58
2021/10/20 12:02:12;;;;;;;5.25;2.65;;;;;;;;;;6248775;23;20408;-58
2021/10/20 12:08:13;;;;;;;4.55;1.98;;;;;;;;;;6248410;23;20015;-58
2021/10/20 12:14:14;;;;;;;3.70;2.65;;;;;;;;;;6248283;23;19995;-58
2021/10/20 12:20:17;;;;;;;2.60;2.28;;;;;;;;;;6248264;23;20360;-58
2021/10/20 12:29:28;;;;;;;2.67;2.22;;;;;;;;;;6248195;23;20089;-58
2021/10/20 12:35:29;;;;;;;2.70;2.35;;;;;;;;;;6248132;23;20003;-58
2021/10/20 12:45:07;;;;;;;2.40;2.20;;;;;;;;;;6248030;23;20114;-58
2021/10/20 12:47:48;;;;;;;2.92;2.72;;;;;;;;;;6247729;23;20426;-58
2021/10/20 12:50:15;;;;;;;3.08;2.78;;;;;;;;;;6247243;23;20001;-58
2021/10/20 12:52:42;;;;;;;3.00;2.80;;;;;;;;;;6247413;22;19996;-58
2021/10/20 12:55:08;;;;;;;3.88;2.97;;;;;;;;;;6247637;22;20000;-58
2021/10/20 12:57:34;;;;;;;2.63;2.42;;;;;;;;;;6247481;22;20424;-58
2021/10/20 13:00:04;;;;;;;2.58;2.38;;;;;;;;;;6247431;22;20004;-58
2021/10/20 13:02:29;;;;;;;2.73;2.33;;;;;;;;;;6247404;22;20098;-58
2021/10/20 13:04:56;;;;;;;3.00;2.30;;;;;;;;;;6247160;23;20004;-58
2021/10/20 13:07:23;;;;;;;2.25;2.15;;;;;;;;;;6245944;22;20317;-58
2021/10/20 13:09:48;;;;;;;1.23;1.13;;;;;;;;;;6246041;23;20302;-58
2021/10/20 13:16:26;;;;;;;5.35;3.08;;;;;;;;;;6247786;23;20044;-58
2021/10/20 13:22:27;;;;;;;2.17;1.98;;;;;;;;;;6247652;23;20003;-58
2021/10/20 13:31:51;;;;;;;2.80;2.50;;;;;;;;;;6247615;23;20039;-58
2021/10/20 13:37:52;;;;;;;2.90;2.60;;;;;;;;;;6247512;23;20062;-58
2021/10/20 13:43:52;;;;;;;4.50;3.30;;;;;;;;;;6247448;23;20115;-58
2021/10/20 13:49:52;;;;;;;2.75;2.55;;;;;;;;;;6247373;23;19999;-58
2021/10/20 13:59:40;;;;;;;4.82;3.70;;;;;;;;;;6247286;23;20424;-58
2021/10/20 14:05:42;;;;;;;3.47;2.70;;;;;;;;;;6247143;23;20076;-58
2021/10/20 14:11:42;;;;;;;2.45;2.30;;;;;;;;;;6247205;23;20099;-59
2021/10/20 14:17:43;;;;;;;5.18;3.78;;;;;;;;;;6247076;23;20047;-58
2021/10/20 14:23:44;;;;;;;2.58;2.38;;;;;;;;;;6247074;23;20040;-59
2021/10/20 14:33:33;;;;;;;3.20;2.90;;;;;;;;;;6246973;23;20124;-58
2021/10/20 14:39:33;;;;;;;4.63;2.85;;;;;;;;;;6246926;23;19999;-58
2021/10/20 14:45:34;;;;;;;3.25;2.95;;;;;;;;;;6246738;23;20072;-58
2021/10/20 14:51:35;;;;;;;3.67;2.97;;;;;;;;;;6246860;23;19995;-57
2021/10/20 14:57:36;;;;;;;3.88;3.05;;;;;;;;;;6246605;23;20039;-57
2021/10/20 15:00:05;;;;;;;11.57;3.08;;;;;;;;;;6246509;23;20046;-57
2021/10/20 15:02:30;;;;;;;3.80;3.40;;;;;;;;;;6245547;23;20004;-57
2021/10/20 15:04:56;;;;;;;3.88;3.08;;;;;;;;;;6246181;23;20074;-57
2021/10/20 15:07:21;;;;;;;3.85;3.40;;;;;;;;;;6244518;23;20004;-57
2021/10/20 15:09:46;;;;;;;7.35;5.32;;;;;;;;;;6246149;22;20010;-57
2021/10/20 15:12:12;;;;;;;6.25;4.93;;;;;;;;;;6245440;23;20024;-57
2021/10/20 15:14:39;;;;;;;9.35;6.00;;;;;;;;;;6246028;22;20015;-58
2021/10/20 15:17:04;;;;;;;6.30;3.35;;;;;;;;;;6244430;23;20004;-57
2021/10/20 15:22:02;;;;;;;5.28;3.75;;;;;;;;;;6246267;22;20004;-57
2021/10/20 15:24:28;;;;;;;5.55;3.55;;;;;;;;;;6246453;22;20031;-57
2021/10/20 15:26:53;;;;;;;4.53;3.78;;;;;;;;;;6246012;22;20011;-58
2021/10/20 15:29:19;;;;;;;4.78;4.28;;;;;;;;;;6243729;23;20008;-58
2021/10/20 15:31:46;;;;;;;8.50;6.05;;;;;;;;;;6245349;23;20008;-58
2021/10/20 15:34:12;;;;;;;7.55;5.70;;;;;;;;;;6246032;22;20004;-58
2021/10/20 15:36:37;;;;;;;8.02;6.45;;;;;;;;;;6246082;23;20004;-58
2021/10/20 15:42:38;;;;;;;6.75;4.75;;;;;;;;;;6246488;23;20022;-58
2021/10/20 15:48:38;;;;;;;6.63;5.22;;;;;;;;;;6246472;23;20018;-58
2021/10/20 15:54:39;;;;;;;14.93;9.20;;;;;;;;;;6246287;23;20088;-59
2021/10/20 15:57:06;;;;;;;26.45;16.25;;;;;;;;;;6246143;22;20015;-64
2021/10/20 15:59:31;;;;;;;23.40;14.02;;;;;;;;;;6245795;22;20000;-58
2021/10/20 16:01:58;;;;;;;22.88;13.68;;;;;;;;;;6246377;22;20065;-59
2021/10/20 16:04:23;;;;;;;17.70;10.77;;;;;;;;;;6244529;23;20000;-58
2021/10/20 16:06:49;;;;;;;10.98;9.50;;;;;;;;;;6245854;22;20381;-58
2021/10/20 16:12:54;;;;;;;20.45;12.40;;;;;;;;;;6246324;23;19995;-58
2021/10/20 16:15:19;;;;;;;24.27;13.57;;;;;;;;;;6246078;22;20516;-59
2021/10/20 16:17:45;;;;;;;22.25;13.55;;;;;;;;;;6245936;22;20027;-59
2021/10/20 16:20:11;;;;;;;20.52;13.40;;;;;;;;;;6245652;22;20012;-58
2021/10/20 16:22:37;;;;;;;18.65;11.73;;;;;;;;;;6245816;22;20003;-59
2021/10/20 16:25:04;;;;;;;16.83;12.30;;;;;;;;;;6247055;23;20004;-58
2021/10/20 16:27:29;;;;;;;18.27;10.55;;;;;;;;;;6246126;23;20486;-58
2021/10/20 16:29:55;;;;;;;13.00;8.68;;;;;;;;;;6247063;23;20095;-58
2021/10/20 16:32:21;;;;;;;11.25;7.40;;;;;;;;;;6247545;23;20432;-59
2021/10/20 16:34:46;;;;;;;17.30;10.52;;;;;;;;;;6247424;22;19992;-59
2021/10/20 16:37:12;;;;;;;12.38;7.53;;;;;;;;;;6247473;22;20004;-59
2021/10/20 16:39:40;;;;;;;16.25;10.82;;;;;;;;;;6247438;22;20375;-59
2021/10/20 16:42:06;;;;;;;11.05;7.75;;;;;;;;;;6247394;23;20004;-58
2021/10/20 16:44:31;;;;;;;9.35;6.93;;;;;;;;;;6247384;22;20324;-58
2021/10/20 16:46:58;;;;;;;11.55;7.68;;;;;;;;;;6247255;23;20004;-58
2021/10/20 16:49:24;;;;;;;10.45;7.65;;;;;;;;;;6247302;22;19992;-58
2021/10/20 16:51:50;;;;;;;15.40;8.48;;;;;;;;;;6247289;22;20087;-58
2021/10/20 16:54:16;;;;;;;14.15;9.50;;;;;;;;;;6247352;22;20026;-58
2021/10/20 16:56:47;;;;;;;10.25;7.90;;;;;;;;;;6247178;23;20012;-58
2021/10/20 16:59:13;;;;;;;15.65;10.95;;;;;;;;;;6247375;23;20502;-58
2021/10/20 17:01:38;;;;;;;15.57;10.73;;;;;;;;;;6246655;23;19996;-58
2021/10/20 17:04:04;;;;;;;17.77;12.43;;;;;;;;;;6247193;23;20012;-58
2021/10/20 17:06:29;;;;;;;25.02;16.63;;;;;;;;;;6247135;23;20359;-58
2021/10/20 17:08:55;;;;;;;20.73;14.90;;;;;;;;;;6247197;22;19996;-58
2021/10/20 17:11:21;;;;;;;14.02;9.75;;;;;;;;;;6247366;22;19996;-58
2021/10/20 17:13:49;;;;;;;12.35;9.30;;;;;;;;;;6247213;23;20004;-58
2021/10/20 17:16:15;;;;;;;14.85;9.90;;;;;;;;;;6247055;22;20407;-58
2021/10/20 17:18:41;;;;;;;20.38;12.18;;;;;;;;;;6247115;22;20066;-58
2021/10/20 17:21:06;;;;;;;20.17;12.82;;;;;;;;;;6247090;22;20006;-58
2021/10/20 17:23:32;;;;;;;17.38;11.38;;;;;;;;;;6247192;22;20058;-58
2021/10/20 17:25:57;;;;;;;17.15;11.70;;;;;;;;;;6246904;23;20007;-58
2021/10/20 17:28:23;;;;;;;16.58;10.68;;;;;;;;;;6246661;22;20043;-58
2021/10/20 17:30:49;;;;;;;18.10;11.35;;;;;;;;;;6247109;22;20004;-58
2021/10/20 17:33:14;;;;;;;17.08;10.82;;;;;;;;;;6246955;22;20023;-58
2021/10/20 17:35:40;;;;;;;19.38;12.00;;;;;;;;;;6246295;23;20008;-58
2021/10/20 17:38:06;;;;;;;20.40;12.85;;;;;;;;;;6246975;22;20020;-58
2021/10/20 17:40:32;;;;;;;20.75;12.77;;;;;;;;;;6246907;23;20004;-58
2021/10/20 17:42:57;;;;;;;17.98;12.32;;;;;;;;;;6238436;22;20385;-58
2021/10/20 17:45:25;;;;;;;20.05;12.10;;;;;;;;;;6241677;23;20111;-58
2021/10/20 17:47:50;;;;;;;19.17;12.30;;;;;;;;;;6241237;22;20000;-58
2021/10/20 17:50:16;;;;;;;16.92;10.68;;;;;;;;;;6240937;22;20047;-58
2021/10/20 17:52:42;;;;;;;19.17;11.18;;;;;;;;;;6240738;22;20332;-58
2021/10/20 17:55:08;;;;;;;16.77;9.50;;;;;;;;;;6241219;22;20008;-58
2021/10/20 17:57:35;;;;;;;14.43;9.93;;;;;;;;;;6241206;22;20012;-58
2021/10/20 18:00:01;;;;;;;17.08;9.20;;;;;;;;;;6240823;23;20314;-58
2021/10/20 18:02:27;;;;;;;108.38;43.58;;;;;;;;;;6240830;22;20019;-58
2021/10/20 18:04:53;;;;;;;45.47;22.70;;;;;;;;;;6240722;23;20436;-58
2021/10/20 18:07:19;;;;;;;13.85;8.77;;;;;;;;;;6240588;22;20043;-58
2021/10/20 18:09:44;;;;;;;10.57;7.45;;;;;;;;;;6240972;23;20004;-58
2021/10/20 18:12:10;;;;;;;9.48;6.97;;;;;;;;;;6240933;22;20004;-59
2021/10/20 18:14:37;;;;;;;9.65;6.85;;;;;;;;;;6240990;22;20079;-58
2021/10/20 18:17:02;;;;;;;11.02;6.43;;;;;;;;;;6239385;23;20011;-58
2021/10/20 18:19:28;;;;;;;11.25;7.22;;;;;;;;;;6240780;23;20016;-58
2021/10/20 18:21:54;;;;;;;10.60;6.53;;;;;;;;;;6240800;22;20082;-58
2021/10/20 18:24:19;;;;;;;11.43;7.10;;;;;;;;;;6240750;23;20427;-58
2021/10/20 18:26:45;;;;;;;11.10;6.72;;;;;;;;;;6242209;23;20004;-58
2021/10/20 18:29:11;;;;;;;8.70;6.40;;;;;;;;;;6241701;23;20040;-57
2021/10/20 18:31:37;;;;;;;10.20;5.85;;;;;;;;;;6242121;23;20031;-57
2021/10/20 18:34:07;;;;;;;6.88;5.10;;;;;;;;;;6241455;22;20000;-57
2021/10/20 18:36:40;;;;;;;7.93;5.53;;;;;;;;;;6242313;22;20099;-57
2021/10/20 18:39:06;;;;;;;6.18;5.57;;;;;;;;;;6242165;23;20019;-57
2021/10/20 18:41:32;;;;;;;7.38;4.72;;;;;;;;;;6242093;22;20035;-57
2021/10/20 18:43:58;;;;;;;8.73;5.13;;;;;;;;;;6241713;23;20103;-57
2021/10/20 18:46:24;;;;;;;7.47;5.57;;;;;;;;;;6241694;22;20031;-57
2021/10/20 18:48:49;;;;;;;6.85;4.65;;;;;;;;;;6241347;22;20099;-57
2021/10/20 18:51:15;;;;;;;7.78;4.95;;;;;;;;;;6241926;22;19996;-57
2021/10/20 18:53:42;;;;;;;6.97;4.85;;;;;;;;;;6241614;22;20012;-57
2021/10/20 18:56:08;;;;;;;6.80;5.18;;;;;;;;;;6241827;22;20093;-57
2021/10/20 18:58:33;;;;;;;5.55;4.97;;;;;;;;;;6241979;22;20012;-57
2021/10/20 19:00:59;;;;;;;6.90;5.03;;;;;;;;;;6241614;23;20478;-57
2021/10/20 19:03:24;;;;;;;6.50;5.57;;;;;;;;;;6241367;23;20019;-57
2021/10/20 19:05:50;;;;;;;10.68;5.72;;;;;;;;;;6241709;22;20428;-57
2021/10/20 19:08:16;;;;;;;7.32;5.40;;;;;;;;;;6239933;23;20511;-57
2021/10/20 19:10:41;;;;;;;5.82;5.22;;;;;;;;;;6241747;22;20000;-57
2021/10/20 19:13:07;;;;;;;9.13;5.53;;;;;;;;;;6241257;23;20004;-57
2021/10/20 19:15:34;;;;;;;6.43;5.65;;;;;;;;;;6241583;22;20007;-57
2021/10/20 19:17:59;;;;;;;8.35;5.70;;;;;;;;;;6241737;23;20012;-57
2021/10/20 19:20:25;;;;;;;6.15;5.20;;;;;;;;;;6241856;22;20447;-57
2021/10/20 19:22:51;;;;;;;7.65;5.25;;;;;;;;;;6241579;23;20439;-57
2021/10/20 19:25:16;;;;;;;7.85;5.55;;;;;;;;;;6241436;22;20007;-57
2021/10/20 19:27:43;;;;;;;7.13;4.57;;;;;;;;;;6241551;23;20087;-57
2021/10/20 19:30:09;;;;;;;5.82;5.25;;;;;;;;;;6241453;22;20395;-57
2021/10/20 19:32:35;;;;;;;8.88;5.63;;;;;;;;;;6241426;23;20055;-57
2021/10/20 19:35:01;;;;;;;8.68;5.95;;;;;;;;;;6241437;22;20459;-57
2021/10/20 19:37:26;;;;;;;8.00;5.43;;;;;;;;;;6241236;22;20019;-57
2021/10/20 19:39:52;;;;;;;7.25;5.82;;;;;;;;;;6241774;22;20351;-57
2021/10/20 19:42:18;;;;;;;7.80;5.95;;;;;;;;;;6242944;23;20504;-58
2021/10/20 19:44:43;;;;;;;9.00;5.60;;;;;;;;;;6245759;22;20024;-57
2021/10/20 19:47:09;;;;;;;8.32;5.95;;;;;;;;;;6246061;22;20408;-57
2021/10/20 19:49:35;;;;;;;8.85;5.72;;;;;;;;;;6245995;22;20022;-57
2021/10/20 19:52:01;;;;;;;8.25;6.07;;;;;;;;;;6245709;23;20047;-57
2021/10/20 19:54:26;;;;;;;9.48;6.53;;;;;;;;;;6245894;22;20028;-57
2021/10/20 19:56:52;;;;;;;10.07;6.05;;;;;;;;;;6246082;23;20015;-57
2021/10/20 19:59:17;;;;;;;9.32;6.15;;;;;;;;;;6246993;22;20004;-57
2021/10/20 20:01:43;;;;;;;7.25;5.28;;;;;;;;;;6248104;23;20363;-58
2021/10/20 20:04:09;;;;;;;12.02;7.13;;;;;;;;;;6248341;23;20000;-59
2021/10/20 20:06:35;;;;;;;15.00;7.20;;;;;;;;;;6247860;23;20050;-58
2021/10/20 20:09:01;;;;;;;8.30;6.03;;;;;;;;;;6247817;22;20000;-58
2021/10/20 20:11:26;;;;;;;10.85;7.10;;;;;;;;;;6246495;23;20042;-58
2021/10/20 20:13:52;;;;;;;12.40;6.60;;;;;;;;;;6247691;22;19992;-57
2021/10/20 20:16:18;;;;;;;12.57;7.10;;;;;;;;;;6247632;23;20035;-57
2021/10/20 20:18:43;;;;;;;11.75;7.15;;;;;;;;;;6248346;22;20006;-57
2021/10/20 20:21:09;;;;;;;10.90;7.35;;;;;;;;;;6247855;23;20047;-57
2021/10/20 20:23:34;;;;;;;10.68;7.05;;;;;;;;;;6248017;22;20000;-57
2021/10/20 20:26:00;;;;;;;13.52;7.25;;;;;;;;;;6248005;22;20046;-57
2021/10/20 20:28:25;;;;;;;9.93;6.80;;;;;;;;;;6247720;22;19996;-57
2021/10/20 20:30:51;;;;;;;10.32;7.00;;;;;;;;;;6247955;23;20000;-58